sensor_id;sensor_type;location;lat;lon;timestamp;P1;durP1;ratioP1;P2;durP2;ratioP2
75993;SDS011;64680;53.800;9.988;2023-08-12T00:00:09;3.05;;;2.72;;
75993;SDS011;64680;53.800;9.988;2023-08-12T00:02:39;4.20;;;2.97;;
75993;SDS011;64680;53.800;9.988;2023-08-12T00:05:05;3.50;;;2.53;;
75993;SDS011;64680;53.800;9.988;2023-08-12T00:07:32;4.80;;;3.13;;
75993;SDS011;64680;53.800;9.988;2023-08-12T00:10:01;2.80;;;2.50;;
75993;SDS011;64680;53.800;9.988;2023-08-12T00:12:29;3.80;;;2.90;;
75993;SDS011;64680;53.800;9.988;2023-08-12T00:14:59;5.55;;;2.95;;
75993;SDS011;64680;53.800;9.988;2023-08-12T00:17:25;3.72;;;2.30;;
75993;SDS011;64680;53.800;9.988;2023-08-12T00:19:50;3.10;;;2.25;;
75993;SDS011;64680;53.800;9.988;2023-08-12T00:22:16;3.42;;;2.50;;
75993;SDS011;64680;53.800;9.988;2023-08-12T00:24:42;3.67;;;3.20;;
75993;SDS011;64680;53.800;9.988;2023-08-12T00:27:08;3.45;;;2.58;;
75993;SDS011;64680;53.800;9.988;2023-08-12T00:29:34;5.80;;;3.08;;
75993;SDS011;64680;53.800;9.988;2023-08-12T00:32:00;4.30;;;3.10;;
75993;SDS011;64680;53.800;9.988;2023-08-12T00:34:25;2.70;;;2.03;;
75993;SDS011;64680;53.800;9.988;2023-08-12T00:36:51;3.33;;;2.67;;
75993;SDS011;64680;53.800;9.988;2023-08-12T00:39:17;3.38;;;2.40;;
75993;SDS011;64680;53.800;9.988;2023-08-12T00:41:42;3.15;;;2.63;;
75993;SDS011;64680;53.800;9.988;2023-08-12T00:44:08;3.60;;;2.45;;
75993;SDS011;64680;53.800;9.988;2023-08-12T00:46:34;3.00;;;2.70;;
75993;SDS011;64680;53.800;9.988;2023-08-12T00:51:27;3.63;;;3.17;;
75993;SDS011;64680;53.800;9.988;2023-08-12T00:53:53;3.10;;;2.20;;
75993;SDS011;64680;53.800;9.988;2023-08-12T00:56:21;4.30;;;2.70;;
75993;SDS011;64680;53.800;9.988;2023-08-12T00:58:46;3.30;;;2.30;;
75993;SDS011;64680;53.800;9.988;2023-08-12T01:01:12;2.80;;;2.28;;
75993;SDS011;64680;53.800;9.988;2023-08-12T01:03:38;4.00;;;2.30;;
75993;SDS011;64680;53.800;9.988;2023-08-12T01:06:04;5.90;;;2.80;;
75993;SDS011;64680;53.800;9.988;2023-08-12T01:08:31;2.78;;;2.28;;
75993;SDS011;64680;53.800;9.988;2023-08-12T01:10:59;3.72;;;2.78;;
75993;SDS011;64680;53.800;9.988;2023-08-12T01:16:17;5.07;;;2.40;;
75993;SDS011;64680;53.800;9.988;2023-08-12T01:18:43;3.53;;;2.40;;
75993;SDS011;64680;53.800;9.988;2023-08-12T01:21:11;5.22;;;3.00;;
75993;SDS011;64680;53.800;9.988;2023-08-12T01:23:42;3.90;;;2.40;;
75993;SDS011;64680;53.800;9.988;2023-08-12T01:26:11;2.85;;;2.55;;
75993;SDS011;64680;53.800;9.988;2023-08-12T01:28:36;3.58;;;2.45;;
75993;SDS011;64680;53.800;9.988;2023-08-12T01:31:09;4.40;;;2.13;;
75993;SDS011;64680;53.800;9.988;2023-08-12T01:33:40;2.67;;;2.47;;
75993;SDS011;64680;53.800;9.988;2023-08-12T01:38:40;2.85;;;2.38;;
75993;SDS011;64680;53.800;9.988;2023-08-12T01:41:08;4.30;;;2.80;;
75993;SDS011;64680;53.800;9.988;2023-08-12T01:43:36;4.82;;;2.92;;
75993;SDS011;64680;53.800;9.988;2023-08-12T01:46:02;3.10;;;2.20;;
75993;SDS011;64680;53.800;9.988;2023-08-12T01:48:28;3.67;;;2.58;;
75993;SDS011;64680;53.800;9.988;2023-08-12T01:50:54;3.78;;;2.88;;
75993;SDS011;64680;53.800;9.988;2023-08-12T01:53:19;4.05;;;2.30;;
75993;SDS011;64680;53.800;9.988;2023-08-12T01:55:45;2.92;;;2.60;;
75993;SDS011;64680;53.800;9.988;2023-08-12T01:58:11;2.97;;;2.15;;
75993;SDS011;64680;53.800;9.988;2023-08-12T02:00:36;3.50;;;2.63;;
75993;SDS011;64680;53.800;9.988;2023-08-12T02:03:02;5.47;;;2.40;;
75993;SDS011;64680;53.800;9.988;2023-08-12T02:05:28;3.58;;;2.15;;
75993;SDS011;64680;53.800;9.988;2023-08-12T02:07:54;3.08;;;2.20;;
75993;SDS011;64680;53.800;9.988;2023-08-12T02:10:19;2.88;;;2.42;;
75993;SDS011;64680;53.800;9.988;2023-08-12T02:12:45;4.30;;;2.70;;
75993;SDS011;64680;53.800;9.988;2023-08-12T02:15:11;3.38;;;2.80;;
75993;SDS011;64680;53.800;9.988;2023-08-12T02:17:36;2.25;;;2.05;;
75993;SDS011;64680;53.800;9.988;2023-08-12T02:20:02;4.30;;;3.00;;
75993;SDS011;64680;53.800;9.988;2023-08-12T02:22:29;4.03;;;2.53;;
75993;SDS011;64680;53.800;9.988;2023-08-12T02:24:54;3.13;;;2.47;;
75993;SDS011;64680;53.800;9.988;2023-08-12T02:27:20;4.20;;;2.72;;
75993;SDS011;64680;53.800;9.988;2023-08-12T02:29:46;3.25;;;2.63;;
75993;SDS011;64680;53.800;9.988;2023-08-12T02:32:11;4.18;;;2.80;;
75993;SDS011;64680;53.800;9.988;2023-08-12T02:34:37;3.30;;;2.50;;
75993;SDS011;64680;53.800;9.988;2023-08-12T02:37:03;3.65;;;2.80;;
75993;SDS011;64680;53.800;9.988;2023-08-12T02:39:28;3.78;;;2.78;;
75993;SDS011;64680;53.800;9.988;2023-08-12T02:41:54;3.25;;;2.30;;
75993;SDS011;64680;53.800;9.988;2023-08-12T02:44:19;3.63;;;2.30;;
75993;SDS011;64680;53.800;9.988;2023-08-12T02:46:45;3.25;;;2.95;;
75993;SDS011;64680;53.800;9.988;2023-08-12T02:49:11;3.05;;;2.53;;
75993;SDS011;64680;53.800;9.988;2023-08-12T02:51:36;4.03;;;2.40;;
75993;SDS011;64680;53.800;9.988;2023-08-12T02:54:02;3.65;;;2.45;;
75993;SDS011;64680;53.800;9.988;2023-08-12T02:56:28;3.08;;;2.60;;
75993;SDS011;64680;53.800;9.988;2023-08-12T02:58:53;3.35;;;2.40;;
75993;SDS011;64680;53.800;9.988;2023-08-12T03:01:20;4.47;;;2.00;;
75993;SDS011;64680;53.800;9.988;2023-08-12T03:03:46;4.47;;;2.50;;
75993;SDS011;64680;53.800;9.988;2023-08-12T03:06:11;3.58;;;2.55;;
75993;SDS011;64680;53.800;9.988;2023-08-12T03:08:37;4.93;;;2.45;;
75993;SDS011;64680;53.800;9.988;2023-08-12T03:11:03;6.60;;;2.88;;
75993;SDS011;64680;53.800;9.988;2023-08-12T03:13:29;3.65;;;2.63;;
75993;SDS011;64680;53.800;9.988;2023-08-12T03:15:55;3.35;;;2.38;;
75993;SDS011;64680;53.800;9.988;2023-08-12T03:18:21;3.58;;;2.70;;
75993;SDS011;64680;53.800;9.988;2023-08-12T03:20:47;5.15;;;2.80;;
75993;SDS011;64680;53.800;9.988;2023-08-12T03:23:12;3.28;;;2.55;;
75993;SDS011;64680;53.800;9.988;2023-08-12T03:25:38;3.83;;;3.20;;
75993;SDS011;64680;53.800;9.988;2023-08-12T03:28:04;3.80;;;2.42;;
75993;SDS011;64680;53.800;9.988;2023-08-12T03:30:29;3.25;;;2.55;;
75993;SDS011;64680;53.800;9.988;2023-08-12T03:32:56;4.15;;;2.75;;
75993;SDS011;64680;53.800;9.988;2023-08-12T03:35:21;3.53;;;2.80;;
75993;SDS011;64680;53.800;9.988;2023-08-12T03:37:47;2.97;;;2.72;;
75993;SDS011;64680;53.800;9.988;2023-08-12T03:40:12;4.00;;;2.45;;
75993;SDS011;64680;53.800;9.988;2023-08-12T03:42:38;2.95;;;2.65;;
75993;SDS011;64680;53.800;9.988;2023-08-12T03:45:04;3.55;;;2.63;;
75993;SDS011;64680;53.800;9.988;2023-08-12T03:47:30;3.20;;;2.78;;
75993;SDS011;64680;53.800;9.988;2023-08-12T03:49:55;3.33;;;2.85;;
75993;SDS011;64680;53.800;9.988;2023-08-12T03:52:21;3.67;;;2.67;;
75993;SDS011;64680;53.800;9.988;2023-08-12T03:54:47;4.25;;;2.85;;
75993;SDS011;64680;53.800;9.988;2023-08-12T03:57:13;4.00;;;3.50;;
75993;SDS011;64680;53.800;9.988;2023-08-12T03:59:38;3.65;;;2.58;;
75993;SDS011;64680;53.800;9.988;2023-08-12T04:02:04;3.65;;;3.20;;
75993;SDS011;64680;53.800;9.988;2023-08-12T04:04:29;4.32;;;2.70;;
75993;SDS011;64680;53.800;9.988;2023-08-12T04:06:55;3.03;;;2.72;;
75993;SDS011;64680;53.800;9.988;2023-08-12T04:09:21;3.90;;;2.95;;
75993;SDS011;64680;53.800;9.988;2023-08-12T04:11:46;3.00;;;2.63;;
75993;SDS011;64680;53.800;9.988;2023-08-12T04:14:15;3.30;;;2.65;;
75993;SDS011;64680;53.800;9.988;2023-08-12T04:16:40;4.53;;;3.08;;
75993;SDS011;64680;53.800;9.988;2023-08-12T04:19:06;2.67;;;2.30;;
75993;SDS011;64680;53.800;9.988;2023-08-12T04:21:32;5.25;;;2.95;;
75993;SDS011;64680;53.800;9.988;2023-08-12T04:23:57;3.45;;;2.53;;
75993;SDS011;64680;53.800;9.988;2023-08-12T04:26:23;3.95;;;2.72;;
75993;SDS011;64680;53.800;9.988;2023-08-12T04:28:48;4.32;;;2.92;;
75993;SDS011;64680;53.800;9.988;2023-08-12T04:31:14;4.28;;;2.78;;
75993;SDS011;64680;53.800;9.988;2023-08-12T04:33:39;4.70;;;3.28;;
75993;SDS011;64680;53.800;9.988;2023-08-12T04:36:05;4.82;;;2.78;;
75993;SDS011;64680;53.800;9.988;2023-08-12T04:38:31;3.95;;;2.63;;
75993;SDS011;64680;53.800;9.988;2023-08-12T04:40:57;3.30;;;2.67;;
75993;SDS011;64680;53.800;9.988;2023-08-12T04:43:22;4.18;;;2.92;;
75993;SDS011;64680;53.800;9.988;2023-08-12T04:45:48;3.10;;;2.70;;
75993;SDS011;64680;53.800;9.988;2023-08-12T04:48:14;4.28;;;2.65;;
75993;SDS011;64680;53.800;9.988;2023-08-12T04:50:41;2.97;;;2.67;;
75993;SDS011;64680;53.800;9.988;2023-08-12T04:53:07;3.55;;;2.80;;
75993;SDS011;64680;53.800;9.988;2023-08-12T04:55:36;4.93;;;3.08;;
75993;SDS011;64680;53.800;9.988;2023-08-12T04:58:03;4.28;;;2.70;;
75993;SDS011;64680;53.800;9.988;2023-08-12T05:00:29;3.53;;;2.70;;
75993;SDS011;64680;53.800;9.988;2023-08-12T05:02:55;3.10;;;2.80;;
75993;SDS011;64680;53.800;9.988;2023-08-12T05:05:20;4.53;;;2.78;;
75993;SDS011;64680;53.800;9.988;2023-08-12T05:07:46;3.53;;;2.75;;
75993;SDS011;64680;53.800;9.988;2023-08-12T05:10:17;3.92;;;2.95;;
75993;SDS011;64680;53.800;9.988;2023-08-12T05:12:43;3.40;;;2.65;;
75993;SDS011;64680;53.800;9.988;2023-08-12T05:15:10;3.20;;;2.78;;
75993;SDS011;64680;53.800;9.988;2023-08-12T05:17:36;3.60;;;2.58;;
75993;SDS011;64680;53.800;9.988;2023-08-12T05:20:01;3.30;;;2.72;;
75993;SDS011;64680;53.800;9.988;2023-08-12T05:22:28;3.78;;;2.58;;
75993;SDS011;64680;53.800;9.988;2023-08-12T05:24:54;2.65;;;2.45;;
75993;SDS011;64680;53.800;9.988;2023-08-12T05:27:19;3.60;;;2.80;;
75993;SDS011;64680;53.800;9.988;2023-08-12T05:29:45;2.92;;;2.63;;
75993;SDS011;64680;53.800;9.988;2023-08-12T05:32:10;4.47;;;3.30;;
75993;SDS011;64680;53.800;9.988;2023-08-12T05:34:36;5.40;;;3.00;;
75993;SDS011;64680;53.800;9.988;2023-08-12T05:37:02;4.13;;;3.13;;
75993;SDS011;64680;53.800;9.988;2023-08-12T05:39:27;4.20;;;3.80;;
75993;SDS011;64680;53.800;9.988;2023-08-12T05:41:53;4.03;;;2.92;;
75993;SDS011;64680;53.800;9.988;2023-08-12T05:44:18;5.40;;;2.97;;
75993;SDS011;64680;53.800;9.988;2023-08-12T05:46:44;6.15;;;3.45;;
75993;SDS011;64680;53.800;9.988;2023-08-12T05:49:10;5.75;;;3.05;;
75993;SDS011;64680;53.800;9.988;2023-08-12T05:51:36;3.92;;;2.97;;
75993;SDS011;64680;53.800;9.988;2023-08-12T05:54:03;4.50;;;3.55;;
75993;SDS011;64680;53.800;9.988;2023-08-12T05:56:29;4.05;;;2.78;;
75993;SDS011;64680;53.800;9.988;2023-08-12T05:58:55;4.65;;;3.25;;
75993;SDS011;64680;53.800;9.988;2023-08-12T06:01:20;6.30;;;3.58;;
75993;SDS011;64680;53.800;9.988;2023-08-12T06:03:46;5.07;;;3.33;;
75993;SDS011;64680;53.800;9.988;2023-08-12T06:06:12;3.42;;;3.03;;
75993;SDS011;64680;53.800;9.988;2023-08-12T06:08:37;4.30;;;3.42;;
75993;SDS011;64680;53.800;9.988;2023-08-12T06:11:03;3.70;;;3.05;;
75993;SDS011;64680;53.800;9.988;2023-08-12T06:13:29;3.47;;;2.95;;
75993;SDS011;64680;53.800;9.988;2023-08-12T06:15:54;3.53;;;3.20;;
75993;SDS011;64680;53.800;9.988;2023-08-12T06:18:20;4.53;;;3.28;;
75993;SDS011;64680;53.800;9.988;2023-08-12T06:20:46;3.75;;;2.90;;
75993;SDS011;64680;53.800;9.988;2023-08-12T06:23:12;5.15;;;3.22;;
75993;SDS011;64680;53.800;9.988;2023-08-12T06:25:37;4.22;;;3.20;;
75993;SDS011;64680;53.800;9.988;2023-08-12T06:28:03;4.95;;;3.70;;
75993;SDS011;64680;53.800;9.988;2023-08-12T06:30:33;5.95;;;4.63;;
75993;SDS011;64680;53.800;9.988;2023-08-12T06:32:59;5.85;;;4.72;;
75993;SDS011;64680;53.800;9.988;2023-08-12T06:35:25;6.88;;;4.57;;
75993;SDS011;64680;53.800;9.988;2023-08-12T06:37:50;5.97;;;4.70;;
75993;SDS011;64680;53.800;9.988;2023-08-12T06:40:16;9.25;;;6.00;;
75993;SDS011;64680;53.800;9.988;2023-08-12T06:42:42;9.65;;;5.53;;
75993;SDS011;64680;53.800;9.988;2023-08-12T06:45:08;6.82;;;5.57;;
75993;SDS011;64680;53.800;9.988;2023-08-12T06:47:34;5.63;;;4.50;;
75993;SDS011;64680;53.800;9.988;2023-08-12T06:50:00;9.55;;;8.48;;
75993;SDS011;64680;53.800;9.988;2023-08-12T06:52:26;10.50;;;6.78;;
75993;SDS011;64680;53.800;9.988;2023-08-12T06:54:51;10.60;;;7.13;;
75993;SDS011;64680;53.800;9.988;2023-08-12T06:57:17;8.07;;;6.55;;
75993;SDS011;64680;53.800;9.988;2023-08-12T06:59:43;7.68;;;5.95;;
75993;SDS011;64680;53.800;9.988;2023-08-12T07:02:08;6.38;;;5.40;;
75993;SDS011;64680;53.800;9.988;2023-08-12T07:04:34;7.32;;;5.53;;
75993;SDS011;64680;53.800;9.988;2023-08-12T07:07:00;7.70;;;5.55;;
75993;SDS011;64680;53.800;9.988;2023-08-12T07:09:25;8.63;;;6.65;;
75993;SDS011;64680;53.800;9.988;2023-08-12T07:11:51;8.07;;;5.85;;
75993;SDS011;64680;53.800;9.988;2023-08-12T07:14:17;7.28;;;5.80;;
75993;SDS011;64680;53.800;9.988;2023-08-12T07:16:43;9.30;;;6.45;;
75993;SDS011;64680;53.800;9.988;2023-08-12T07:19:08;9.18;;;6.13;;
75993;SDS011;64680;53.800;9.988;2023-08-12T07:21:34;7.38;;;6.20;;
75993;SDS011;64680;53.800;9.988;2023-08-12T07:23:59;8.15;;;6.72;;
75993;SDS011;64680;53.800;9.988;2023-08-12T07:26:25;9.13;;;6.63;;
75993;SDS011;64680;53.800;9.988;2023-08-12T07:28:51;8.13;;;6.75;;
75993;SDS011;64680;53.800;9.988;2023-08-12T07:31:17;9.35;;;8.18;;
75993;SDS011;64680;53.800;9.988;2023-08-12T07:33:43;11.68;;;9.23;;
75993;SDS011;64680;53.800;9.988;2023-08-12T07:36:09;9.60;;;7.88;;
75993;SDS011;64680;53.800;9.988;2023-08-12T07:38:34;13.32;;;10.32;;
75993;SDS011;64680;53.800;9.988;2023-08-12T07:41:00;7.97;;;7.07;;
75993;SDS011;64680;53.800;9.988;2023-08-12T07:43:26;10.45;;;7.93;;
75993;SDS011;64680;53.800;9.988;2023-08-12T07:45:52;13.30;;;9.10;;
75993;SDS011;64680;53.800;9.988;2023-08-12T07:48:21;11.25;;;8.40;;
75993;SDS011;64680;53.800;9.988;2023-08-12T07:50:46;11.18;;;7.40;;
75993;SDS011;64680;53.800;9.988;2023-08-12T07:53:19;11.27;;;8.80;;
75993;SDS011;64680;53.800;9.988;2023-08-12T07:55:45;10.55;;;7.05;;
75993;SDS011;64680;53.800;9.988;2023-08-12T07:58:11;9.93;;;8.20;;
75993;SDS011;64680;53.800;9.988;2023-08-12T08:00:36;11.35;;;7.43;;
75993;SDS011;64680;53.800;9.988;2023-08-12T08:03:02;11.95;;;9.32;;
75993;SDS011;64680;53.800;9.988;2023-08-12T08:05:28;8.75;;;7.00;;
75993;SDS011;64680;53.800;9.988;2023-08-12T08:07:54;9.07;;;7.53;;
75993;SDS011;64680;53.800;9.988;2023-08-12T08:10:19;10.80;;;8.27;;
75993;SDS011;64680;53.800;9.988;2023-08-12T08:12:45;12.77;;;8.63;;
75993;SDS011;64680;53.800;9.988;2023-08-12T08:15:11;10.77;;;9.55;;
75993;SDS011;64680;53.800;9.988;2023-08-12T08:17:36;11.05;;;7.80;;
75993;SDS011;64680;53.800;9.988;2023-08-12T08:20:02;10.68;;;7.90;;
75993;SDS011;64680;53.800;9.988;2023-08-12T08:22:30;11.82;;;9.65;;
75993;SDS011;64680;53.800;9.988;2023-08-12T08:24:56;10.50;;;7.65;;
75993;SDS011;64680;53.800;9.988;2023-08-12T08:27:21;11.40;;;8.18;;
75993;SDS011;64680;53.800;9.988;2023-08-12T08:29:47;14.10;;;8.70;;
75993;SDS011;64680;53.800;9.988;2023-08-12T08:32:13;13.50;;;9.93;;
75993;SDS011;64680;53.800;9.988;2023-08-12T08:34:38;10.68;;;8.80;;
75993;SDS011;64680;53.800;9.988;2023-08-12T08:37:04;11.73;;;8.02;;
75993;SDS011;64680;53.800;9.988;2023-08-12T08:39:30;9.23;;;7.28;;
75993;SDS011;64680;53.800;9.988;2023-08-12T08:41:56;13.55;;;9.35;;
75993;SDS011;64680;53.800;9.988;2023-08-12T08:44:22;13.98;;;9.27;;
75993;SDS011;64680;53.800;9.988;2023-08-12T08:46:51;11.57;;;7.95;;
75993;SDS011;64680;53.800;9.988;2023-08-12T08:49:18;11.07;;;8.73;;
75993;SDS011;64680;53.800;9.988;2023-08-12T08:51:46;9.50;;;8.20;;
75993;SDS011;64680;53.800;9.988;2023-08-12T08:54:12;10.15;;;8.13;;
75993;SDS011;64680;53.800;9.988;2023-08-12T08:56:38;11.98;;;8.60;;
75993;SDS011;64680;53.800;9.988;2023-08-12T08:59:04;12.02;;;8.60;;
75993;SDS011;64680;53.800;9.988;2023-08-12T09:01:30;11.75;;;8.50;;
75993;SDS011;64680;53.800;9.988;2023-08-12T09:03:57;9.32;;;5.93;;
75993;SDS011;64680;53.800;9.988;2023-08-12T09:08:51;8.40;;;6.35;;
75993;SDS011;64680;53.800;9.988;2023-08-12T09:11:17;8.43;;;6.80;;
75993;SDS011;64680;53.800;9.988;2023-08-12T09:13:44;8.55;;;6.22;;
75993;SDS011;64680;53.800;9.988;2023-08-12T09:16:10;11.43;;;6.63;;
75993;SDS011;64680;53.800;9.988;2023-08-12T09:18:36;8.10;;;6.20;;
75993;SDS011;64680;53.800;9.988;2023-08-12T09:21:03;10.38;;;6.82;;
75993;SDS011;64680;53.800;9.988;2023-08-12T09:23:34;11.77;;;6.88;;
75993;SDS011;64680;53.800;9.988;2023-08-12T09:26:00;9.40;;;7.18;;
75993;SDS011;64680;53.800;9.988;2023-08-12T09:28:26;9.93;;;6.80;;
75993;SDS011;64680;53.800;9.988;2023-08-12T09:30:52;8.15;;;5.53;;
75993;SDS011;64680;53.800;9.988;2023-08-12T09:33:18;7.50;;;5.43;;
75993;SDS011;64680;53.800;9.988;2023-08-12T09:35:51;11.25;;;5.93;;
75993;SDS011;64680;53.800;9.988;2023-08-12T09:38:17;12.05;;;6.32;;
75993;SDS011;64680;53.800;9.988;2023-08-12T09:40:43;10.60;;;5.75;;
75993;SDS011;64680;53.800;9.988;2023-08-12T09:43:11;8.63;;;5.88;;
75993;SDS011;64680;53.800;9.988;2023-08-12T09:45:37;8.10;;;4.95;;
75993;SDS011;64680;53.800;9.988;2023-08-12T09:48:03;8.15;;;6.65;;
75993;SDS011;64680;53.800;9.988;2023-08-12T09:50:29;8.93;;;6.15;;
75993;SDS011;64680;53.800;9.988;2023-08-12T09:52:55;7.65;;;5.75;;
75993;SDS011;64680;53.800;9.988;2023-08-12T09:55:22;7.03;;;5.82;;
75993;SDS011;64680;53.800;9.988;2023-08-12T09:57:53;7.85;;;4.80;;
75993;SDS011;64680;53.800;9.988;2023-08-12T10:00:20;7.03;;;5.00;;
75993;SDS011;64680;53.800;9.988;2023-08-12T10:02:47;6.80;;;4.53;;
75993;SDS011;64680;53.800;9.988;2023-08-12T10:05:24;9.35;;;5.60;;
75993;SDS011;64680;53.800;9.988;2023-08-12T10:07:56;6.43;;;4.63;;
75993;SDS011;64680;53.800;9.988;2023-08-12T10:10:21;8.02;;;4.88;;
75993;SDS011;64680;53.800;9.988;2023-08-12T10:12:48;6.18;;;4.90;;
75993;SDS011;64680;53.800;9.988;2023-08-12T10:15:14;6.00;;;4.45;;
75993;SDS011;64680;53.800;9.988;2023-08-12T10:17:40;8.07;;;5.68;;
75993;SDS011;64680;53.800;9.988;2023-08-12T10:20:07;6.53;;;5.15;;
75993;SDS011;64680;53.800;9.988;2023-08-12T10:22:37;9.52;;;5.03;;
75993;SDS011;64680;53.800;9.988;2023-08-12T10:25:05;8.57;;;4.75;;
75993;SDS011;64680;53.800;9.988;2023-08-12T10:27:34;7.80;;;4.65;;
75993;SDS011;64680;53.800;9.988;2023-08-12T10:30:04;6.30;;;4.78;;
75993;SDS011;64680;53.800;9.988;2023-08-12T10:32:31;5.85;;;4.15;;
75993;SDS011;64680;53.800;9.988;2023-08-12T10:34:57;5.72;;;5.10;;
75993;SDS011;64680;53.800;9.988;2023-08-12T10:37:24;5.63;;;4.53;;
75993;SDS011;64680;53.800;9.988;2023-08-12T10:39:53;6.55;;;4.65;;
75993;SDS011;64680;53.800;9.988;2023-08-12T10:45:18;5.22;;;4.22;;
75993;SDS011;64680;53.800;9.988;2023-08-12T10:50:44;6.82;;;5.15;;
75993;SDS011;64680;53.800;9.988;2023-08-12T10:53:23;7.47;;;4.80;;
75993;SDS011;64680;53.800;9.988;2023-08-12T10:55:59;6.03;;;4.50;;
75993;SDS011;64680;53.800;9.988;2023-08-12T10:58:33;5.75;;;4.80;;
75993;SDS011;64680;53.800;9.988;2023-08-12T11:01:08;8.15;;;5.40;;
75993;SDS011;64680;53.800;9.988;2023-08-12T11:03:38;6.60;;;5.75;;
75993;SDS011;64680;53.800;9.988;2023-08-12T11:06:09;6.47;;;5.00;;
75993;SDS011;64680;53.800;9.988;2023-08-12T11:11:33;5.40;;;4.35;;
75993;SDS011;64680;53.800;9.988;2023-08-12T11:13:59;6.30;;;5.60;;
75993;SDS011;64680;53.800;9.988;2023-08-12T11:16:31;7.60;;;4.90;;
75993;SDS011;64680;53.800;9.988;2023-08-12T11:19:00;5.82;;;4.15;;
75993;SDS011;64680;53.800;9.988;2023-08-12T11:21:27;5.05;;;3.85;;
75993;SDS011;64680;53.800;9.988;2023-08-12T11:23:54;4.95;;;3.97;;
75993;SDS011;64680;53.800;9.988;2023-08-12T11:26:22;5.78;;;4.20;;
75993;SDS011;64680;53.800;9.988;2023-08-12T11:28:48;6.10;;;5.05;;
75993;SDS011;64680;53.800;9.988;2023-08-12T11:31:14;6.38;;;4.30;;
75993;SDS011;64680;53.800;9.988;2023-08-12T11:33:41;5.93;;;4.60;;
75993;SDS011;64680;53.800;9.988;2023-08-12T11:36:07;4.95;;;3.67;;
75993;SDS011;64680;53.800;9.988;2023-08-12T11:38:32;6.13;;;4.07;;
75993;SDS011;64680;53.800;9.988;2023-08-12T11:41:00;6.88;;;4.70;;
75993;SDS011;64680;53.800;9.988;2023-08-12T11:43:27;7.03;;;5.13;;
75993;SDS011;64680;53.800;9.988;2023-08-12T11:45:55;6.63;;;4.30;;
75993;SDS011;64680;53.800;9.988;2023-08-12T11:48:21;5.25;;;4.15;;
75993;SDS011;64680;53.800;9.988;2023-08-12T11:53:14;7.50;;;4.25;;
75993;SDS011;64680;53.800;9.988;2023-08-12T11:55:41;6.32;;;4.40;;
75993;SDS011;64680;53.800;9.988;2023-08-12T11:58:07;6.95;;;4.78;;
75993;SDS011;64680;53.800;9.988;2023-08-12T12:00:32;7.32;;;3.97;;
75993;SDS011;64680;53.800;9.988;2023-08-12T12:02:58;5.53;;;4.40;;
75993;SDS011;64680;53.800;9.988;2023-08-12T12:05:28;7.65;;;5.47;;
75993;SDS011;64680;53.800;9.988;2023-08-12T12:07:59;7.60;;;5.55;;
75993;SDS011;64680;53.800;9.988;2023-08-12T12:10:26;10.63;;;5.43;;
75993;SDS011;64680;53.800;9.988;2023-08-12T12:12:56;10.20;;;6.05;;
75993;SDS011;64680;53.800;9.988;2023-08-12T12:15:22;7.90;;;6.65;;
75993;SDS011;64680;53.800;9.988;2023-08-12T12:17:48;10.75;;;6.18;;
75993;SDS011;64680;53.800;9.988;2023-08-12T12:20:15;8.80;;;5.13;;
75993;SDS011;64680;53.800;9.988;2023-08-12T12:22:41;10.77;;;6.10;;
75993;SDS011;64680;53.800;9.988;2023-08-12T12:25:09;7.75;;;4.50;;
75993;SDS011;64680;53.800;9.988;2023-08-12T12:27:39;9.05;;;4.50;;
75993;SDS011;64680;53.800;9.988;2023-08-12T12:30:09;9.43;;;5.70;;
75993;SDS011;64680;53.800;9.988;2023-08-12T12:32:36;5.88;;;4.57;;
75993;SDS011;64680;53.800;9.988;2023-08-12T12:35:02;7.10;;;4.68;;
75993;SDS011;64680;53.800;9.988;2023-08-12T12:37:29;6.03;;;4.22;;
75993;SDS011;64680;53.800;9.988;2023-08-12T12:39:54;6.20;;;4.10;;
75993;SDS011;64680;53.800;9.988;2023-08-12T12:42:20;7.70;;;5.35;;
75993;SDS011;64680;53.800;9.988;2023-08-12T12:44:46;7.82;;;5.18;;
75993;SDS011;64680;53.800;9.988;2023-08-12T12:47:11;6.47;;;4.82;;
75993;SDS011;64680;53.800;9.988;2023-08-12T12:49:40;11.48;;;8.20;;
75993;SDS011;64680;53.800;9.988;2023-08-12T12:52:08;6.90;;;5.00;;
75993;SDS011;64680;53.800;9.988;2023-08-12T12:54:34;9.07;;;6.82;;
75993;SDS011;64680;53.800;9.988;2023-08-12T12:57:00;7.60;;;5.18;;
75993;SDS011;64680;53.800;9.988;2023-08-12T12:59:26;6.85;;;5.05;;
75993;SDS011;64680;53.800;9.988;2023-08-12T13:01:52;8.07;;;5.45;;
75993;SDS011;64680;53.800;9.988;2023-08-12T13:04:18;7.40;;;5.50;;
75993;SDS011;64680;53.800;9.988;2023-08-12T13:06:44;8.75;;;5.30;;
75993;SDS011;64680;53.800;9.988;2023-08-12T13:09:09;7.20;;;5.13;;
75993;SDS011;64680;53.800;9.988;2023-08-12T13:11:35;8.10;;;5.05;;
75993;SDS011;64680;53.800;9.988;2023-08-12T13:14:01;8.02;;;5.25;;
75993;SDS011;64680;53.800;9.988;2023-08-12T13:16:28;8.15;;;4.85;;
75993;SDS011;64680;53.800;9.988;2023-08-12T13:18:54;6.75;;;5.43;;
75993;SDS011;64680;53.800;9.988;2023-08-12T13:21:19;4.47;;;3.85;;
75993;SDS011;64680;53.800;9.988;2023-08-12T13:23:45;6.20;;;4.22;;
75993;SDS011;64680;53.800;9.988;2023-08-12T13:26:10;6.57;;;4.90;;
75993;SDS011;64680;53.800;9.988;2023-08-12T13:28:36;4.75;;;3.80;;
75993;SDS011;64680;53.800;9.988;2023-08-12T13:31:02;7.07;;;4.57;;
75993;SDS011;64680;53.800;9.988;2023-08-12T13:33:27;6.25;;;4.35;;
75993;SDS011;64680;53.800;9.988;2023-08-12T13:35:53;5.82;;;4.55;;
75993;SDS011;64680;53.800;9.988;2023-08-12T13:38:19;6.07;;;4.80;;
75993;SDS011;64680;53.800;9.988;2023-08-12T13:40:45;6.53;;;5.07;;
75993;SDS011;64680;53.800;9.988;2023-08-12T13:43:11;8.10;;;6.57;;
75993;SDS011;64680;53.800;9.988;2023-08-12T13:45:36;6.35;;;5.13;;
75993;SDS011;64680;53.800;9.988;2023-08-12T13:48:02;6.18;;;5.03;;
75993;SDS011;64680;53.800;9.988;2023-08-12T13:50:28;8.57;;;5.22;;
75993;SDS011;64680;53.800;9.988;2023-08-12T13:52:53;9.68;;;6.55;;
75993;SDS011;64680;53.800;9.988;2023-08-12T13:55:19;5.78;;;4.60;;
75993;SDS011;64680;53.800;9.988;2023-08-12T13:57:45;6.75;;;5.63;;
75993;SDS011;64680;53.800;9.988;2023-08-12T14:00:10;8.52;;;7.20;;
75993;SDS011;64680;53.800;9.988;2023-08-12T14:02:38;8.30;;;6.43;;
75993;SDS011;64680;53.800;9.988;2023-08-12T14:05:04;8.13;;;5.55;;
75993;SDS011;64680;53.800;9.988;2023-08-12T14:07:31;9.05;;;6.57;;
75993;SDS011;64680;53.800;9.988;2023-08-12T14:09:57;8.52;;;5.88;;
75993;SDS011;64680;53.800;9.988;2023-08-12T14:12:23;9.60;;;7.38;;
75993;SDS011;64680;53.800;9.988;2023-08-12T14:14:49;7.85;;;6.15;;
75993;SDS011;64680;53.800;9.988;2023-08-12T14:17:15;7.72;;;5.63;;
75993;SDS011;64680;53.800;9.988;2023-08-12T14:19:43;10.52;;;7.15;;
75993;SDS011;64680;53.800;9.988;2023-08-12T14:22:12;6.85;;;5.63;;
75993;SDS011;64680;53.800;9.988;2023-08-12T14:24:38;8.50;;;6.00;;
75993;SDS011;64680;53.800;9.988;2023-08-12T14:27:03;7.75;;;6.65;;
75993;SDS011;64680;53.800;9.988;2023-08-12T14:29:29;8.38;;;6.60;;
75993;SDS011;64680;53.800;9.988;2023-08-12T14:31:55;8.10;;;6.90;;
75993;SDS011;64680;53.800;9.988;2023-08-12T14:34:21;9.82;;;7.45;;
75993;SDS011;64680;53.800;9.988;2023-08-12T14:36:47;11.10;;;8.27;;
75993;SDS011;64680;53.800;9.988;2023-08-12T14:39:13;8.40;;;6.45;;
75993;SDS011;64680;53.800;9.988;2023-08-12T14:41:38;11.95;;;8.63;;
75993;SDS011;64680;53.800;9.988;2023-08-12T14:44:04;11.30;;;8.90;;
75993;SDS011;64680;53.800;9.988;2023-08-12T14:46:29;9.52;;;7.25;;
75993;SDS011;64680;53.800;9.988;2023-08-12T14:48:55;10.13;;;8.23;;
75993;SDS011;64680;53.800;9.988;2023-08-12T14:51:21;10.65;;;8.27;;
75993;SDS011;64680;53.800;9.988;2023-08-12T14:53:47;11.27;;;9.20;;
75993;SDS011;64680;53.800;9.988;2023-08-12T14:56:13;12.45;;;7.95;;
75993;SDS011;64680;53.800;9.988;2023-08-12T14:58:38;10.95;;;7.97;;
75993;SDS011;64680;53.800;9.988;2023-08-12T15:01:04;10.85;;;7.70;;